createdAt,value
2022-12-08T00:02:05.048Z,13.67
2022-12-08T00:04:53.410Z,12.37
2022-12-08T00:07:40.301Z,14.80
2022-12-08T00:10:39.902Z,13.23
2022-12-08T00:12:57.536Z,13.60
2022-12-08T00:15:25.465Z,11.90
2022-12-08T00:17:53.970Z,13.33
2022-12-08T00:20:21.976Z,13.13
2022-12-08T00:22:51.206Z,13.70
2022-12-08T00:25:19.215Z,13.20
2022-12-08T00:27:47.046Z,12.70
2022-12-08T00:30:15.121Z,12.03
2022-12-08T00:32:42.977Z,13.33
2022-12-08T00:35:10.916Z,12.23
2022-12-08T00:37:38.813Z,12.10
2022-12-08T00:40:09.949Z,11.83
2022-12-08T00:42:37.885Z,9.87
2022-12-08T00:45:06.698Z,10.17
2022-12-08T00:47:34.631Z,10.57
2022-12-08T00:50:02.964Z,12.57
2022-12-08T00:52:31.057Z,10.53
2022-12-08T00:54:58.919Z,10.60
2022-12-08T00:57:28.360Z,10.50
2022-12-08T00:59:57.274Z,11.13
2022-12-08T01:02:25.208Z,11.43
2022-12-08T01:04:53.090Z,10.33
2022-12-08T01:07:20.974Z,9.83
2022-12-08T01:09:48.853Z,11.17
2022-12-08T01:12:16.730Z,10.80
2022-12-08T01:14:46.232Z,12.17
2022-12-08T01:17:14.236Z,10.53
2022-12-08T01:19:42.218Z,11.27
2022-12-08T01:22:10.126Z,9.53
2022-12-08T01:24:37.977Z,9.80
2022-12-08T01:27:05.931Z,8.50
2022-12-08T01:29:34.700Z,7.67
2022-12-08T01:32:04.055Z,6.73
2022-12-08T01:34:32.151Z,7.03
2022-12-08T01:37:00.102Z,6.57
2022-12-08T01:39:28.057Z,6.83
2022-12-08T01:41:55.921Z,6.10
2022-12-08T01:44:55.792Z,7.40
2022-12-08T01:47:31.048Z,7.80
2022-12-08T01:49:59.239Z,8.23
2022-12-08T01:52:30.478Z,8.10
2022-12-08T01:55:03.648Z,8.07
2022-12-08T01:57:36.301Z,8.00
2022-12-08T02:00:08.709Z,8.37
2022-12-08T02:02:47.730Z,7.53
2022-12-08T02:05:16.221Z,8.90
2022-12-08T02:07:45.256Z,7.83
2022-12-08T02:10:17.683Z,7.33
2022-12-08T02:12:46.101Z,7.40
2022-12-08T02:15:15.274Z,7.00
2022-12-08T02:17:59.554Z,7.70
2022-12-08T02:20:49.696Z,7.17
2022-12-08T02:23:28.455Z,7.73
2022-12-08T02:26:17.330Z,6.33
2022-12-08T02:29:06.538Z,7.13
2022-12-08T02:31:50.518Z,7.30
2022-12-08T02:34:28.448Z,6.83
2022-12-08T02:37:05.766Z,7.07
2022-12-08T02:39:43.179Z,6.83
2022-12-08T02:42:18.847Z,6.97
2022-12-08T02:44:53.530Z,7.17
2022-12-08T02:47:24.885Z,7.33
2022-12-08T02:49:55.882Z,6.57
2022-12-08T02:52:44.544Z,7.17
2022-12-08T02:55:31.589Z,6.70
2022-12-08T02:58:23.433Z,6.53
2022-12-08T03:01:13.710Z,7.20
2022-12-08T03:03:51.447Z,7.17
2022-12-08T03:06:30.655Z,7.30
2022-12-08T03:09:03.018Z,7.03
2022-12-08T03:11:40.047Z,7.37
2022-12-08T03:14:10.600Z,7.00
2022-12-08T03:16:44.435Z,7.37
2022-12-08T03:19:18.624Z,8.00
2022-12-08T03:21:51.424Z,7.33
2022-12-08T03:24:23.213Z,7.97
2022-12-08T03:26:57.138Z,7.57
2022-12-08T03:29:25.711Z,7.77
2022-12-08T03:31:57.963Z,8.87
2022-12-08T03:34:28.308Z,8.63
2022-12-08T03:36:57.793Z,8.57
2022-12-08T03:39:25.781Z,9.17
2022-12-08T03:41:53.763Z,8.03
2022-12-08T03:44:21.811Z,9.23
2022-12-08T03:46:49.651Z,9.03
2022-12-08T03:49:17.548Z,9.73
2022-12-08T03:51:45.531Z,9.27
2022-12-08T03:54:14.801Z,9.00
2022-12-08T03:56:42.666Z,8.77
2022-12-08T03:59:11.712Z,10.53
2022-12-08T04:01:39.675Z,9.23
2022-12-08T04:04:07.612Z,8.73
2022-12-08T04:06:35.513Z,9.47
2022-12-08T04:09:03.421Z,9.47
2022-12-08T04:11:32.666Z,9.53
2022-12-08T04:14:00.598Z,7.53
2022-12-08T04:16:28.630Z,8.50
2022-12-08T04:18:56.634Z,7.57
2022-12-08T04:21:24.584Z,8.07
2022-12-08T04:23:57.550Z,7.70
2022-12-08T04:26:28.563Z,7.87
2022-12-08T04:28:57.918Z,8.23
2022-12-08T04:31:25.890Z,8.53
2022-12-08T04:33:54.071Z,8.20
2022-12-08T04:36:22.010Z,8.67
2022-12-08T04:38:49.937Z,8.03
2022-12-08T04:41:17.851Z,9.87
2022-12-08T04:43:45.787Z,8.73
2022-12-08T04:46:15.113Z,7.73
2022-12-08T04:48:43.309Z,7.87
2022-12-08T04:51:16.895Z,7.53
2022-12-08T04:53:46.934Z,8.00
2022-12-08T04:56:16.050Z,8.00
2022-12-08T04:58:44.140Z,7.90
2022-12-08T05:01:12.196Z,7.77
2022-12-08T05:03:41.590Z,7.57
2022-12-08T05:06:11.825Z,7.70
2022-12-08T05:08:39.703Z,8.30
2022-12-08T05:11:09.681Z,8.13
2022-12-08T05:13:37.617Z,7.97
2022-12-08T05:16:06.754Z,7.67
2022-12-08T05:18:34.869Z,7.73
2022-12-08T05:21:05.478Z,8.07
2022-12-08T05:23:33.579Z,7.63
2022-12-08T05:26:02.208Z,8.53
2022-12-08T05:28:41.473Z,8.87
2022-12-08T05:31:10.331Z,7.90
2022-12-08T05:33:38.334Z,8.53
2022-12-08T05:36:08.515Z,7.73
2022-12-08T05:38:36.616Z,9.83
2022-12-08T05:41:04.550Z,10.57
2022-12-08T05:43:32.424Z,10.47
2022-12-08T05:46:00.528Z,10.50
2022-12-08T05:48:28.635Z,11.17
2022-12-08T05:50:57.045Z,11.23
2022-12-08T05:53:26.804Z,10.57
2022-12-08T05:55:55.106Z,11.40
2022-12-08T05:58:24.351Z,9.90
2022-12-08T06:00:52.711Z,9.80
2022-12-08T06:03:21.019Z,10.50
2022-12-08T06:05:49.519Z,10.10
2022-12-08T06:08:17.656Z,9.80
2022-12-08T06:10:48.458Z,9.77
2022-12-08T06:13:16.497Z,9.50
2022-12-08T06:15:44.469Z,10.30
2022-12-08T06:18:12.920Z,10.07
2022-12-08T06:20:41.057Z,10.07
2022-12-08T06:23:09.038Z,10.63
2022-12-08T06:25:37.069Z,10.20
2022-12-08T06:28:08.540Z,10.33
2022-12-08T06:30:36.676Z,9.87
2022-12-08T06:33:04.783Z,11.27
2022-12-08T06:35:32.819Z,10.33
2022-12-08T06:38:01.317Z,10.87
2022-12-08T06:40:29.278Z,10.27
2022-12-08T06:42:57.353Z,9.70
2022-12-08T06:45:26.931Z,9.87
2022-12-08T06:47:55.267Z,10.30
2022-12-08T06:50:23.224Z,10.30
2022-12-08T06:53:02.683Z,10.70
2022-12-08T06:55:57.906Z,10.07
2022-12-08T06:58:21.608Z,10.00
2022-12-08T07:00:51.074Z,10.63
2022-12-08T07:03:19.107Z,9.53
2022-12-08T07:05:47.138Z,10.00
2022-12-08T07:08:16.029Z,9.20
2022-12-08T07:10:44.034Z,10.20
2022-12-08T07:13:11.965Z,9.40
2022-12-08T07:15:39.877Z,9.90
2022-12-08T07:18:09.179Z,9.13
2022-12-08T07:20:37.074Z,10.43
2022-12-08T07:23:04.969Z,19.13
2022-12-08T07:25:34.386Z,11.07
2022-12-08T07:28:02.248Z,11.27
2022-12-08T07:30:30.410Z,12.87
2022-12-08T07:33:00.267Z,11.30
2022-12-08T07:35:29.639Z,12.03
2022-12-08T07:37:57.820Z,10.57
2022-12-08T07:40:25.825Z,10.37
2022-12-08T07:42:53.846Z,9.13
2022-12-08T07:45:23.666Z,10.30
2022-12-08T07:47:56.461Z,8.97
2022-12-08T07:50:25.833Z,11.83
2022-12-08T07:52:55.366Z,9.83
2022-12-08T07:55:23.657Z,9.90
2022-12-08T07:57:52.026Z,9.40
2022-12-08T08:00:21.146Z,9.77
2022-12-08T08:02:49.268Z,9.53
2022-12-08T08:05:17.495Z,10.10
2022-12-08T08:07:48.448Z,9.83
2022-12-08T08:10:18.341Z,10.37
2022-12-08T08:12:46.327Z,11.17
2022-12-08T08:15:14.339Z,10.57
2022-12-08T08:17:42.646Z,10.57
2022-12-08T08:20:12.527Z,11.30
2022-12-08T08:22:40.582Z,10.40
2022-12-08T08:25:09.381Z,10.77
2022-12-08T08:27:38.843Z,9.30
2022-12-08T08:30:08.612Z,9.57
2022-12-08T08:32:37.173Z,10.30
2022-12-08T08:35:06.594Z,9.50
2022-12-08T08:37:35.483Z,10.37
2022-12-08T08:40:04.009Z,8.97
2022-12-08T08:42:32.201Z,9.50
2022-12-08T08:45:01.769Z,10.37
2022-12-08T08:47:29.724Z,14.13
2022-12-08T08:49:57.815Z,10.60
2022-12-08T08:52:25.828Z,9.10
2022-12-08T08:54:54.006Z,9.63
2022-12-08T08:57:25.491Z,9.30
2022-12-08T08:59:54.109Z,8.77
2022-12-08T09:02:24.031Z,9.83
2022-12-08T09:04:52.087Z,9.90
2022-12-08T09:07:20.271Z,9.23
2022-12-08T09:09:49.384Z,7.53
2022-12-08T09:12:17.611Z,6.30
2022-12-08T09:14:46.012Z,6.73
2022-12-08T09:17:15.669Z,5.00
2022-12-08T09:19:45.242Z,4.53
2022-12-08T09:22:16.688Z,4.40
2022-12-08T09:24:44.871Z,4.87
2022-12-08T09:27:14.113Z,5.33
2022-12-08T09:29:42.104Z,5.07
2022-12-08T09:32:10.739Z,4.90
2022-12-08T09:34:38.814Z,5.80
2022-12-08T09:37:08.472Z,5.30
2022-12-08T09:39:36.754Z,5.88
2022-12-08T09:42:08.049Z,5.20
2022-12-08T09:44:52.616Z,7.77
2022-12-08T09:47:26.755Z,6.27
2022-12-08T09:50:04.417Z,5.65
2022-12-08T09:52:39.466Z,5.82
2022-12-08T09:55:17.167Z,5.75
2022-12-08T09:57:45.768Z,5.47
2022-12-08T10:00:15.003Z,5.28
2022-12-08T10:02:44.437Z,5.03
2022-12-08T10:05:15.343Z,5.15
2022-12-08T10:07:49.018Z,5.53
2022-12-08T10:10:37.925Z,5.38
2022-12-08T10:13:12.985Z,4.88
2022-12-08T10:15:46.191Z,5.70
2022-12-08T10:18:18.024Z,6.63
2022-12-08T10:20:49.116Z,5.30
2022-12-08T10:23:26.913Z,6.00
2022-12-08T10:26:01.645Z,6.03
2022-12-08T10:28:29.898Z,6.47
2022-12-08T10:30:57.962Z,5.40
2022-12-08T10:33:26.777Z,6.00
2022-12-08T10:35:58.472Z,5.72
2022-12-08T10:38:31.762Z,5.90
2022-12-08T10:41:05.893Z,5.63
2022-12-08T10:43:35.504Z,6.07
2022-12-08T10:46:12.947Z,6.20
2022-12-08T10:48:50.856Z,5.90
2022-12-08T10:51:29.008Z,5.78
2022-12-08T10:53:58.405Z,6.10
2022-12-08T10:56:28.913Z,6.10
2022-12-08T10:59:19.762Z,6.40
2022-12-08T11:01:49.759Z,6.90
2022-12-08T11:04:20.771Z,7.07
2022-12-08T11:06:50.940Z,6.80
2022-12-08T11:09:37.129Z,7.30
2022-12-08T11:12:10.371Z,8.07
2022-12-08T11:14:49.915Z,6.75
2022-12-08T11:17:24.896Z,6.80
2022-12-08T11:19:59.521Z,7.05
2022-12-08T11:22:31.052Z,6.82
2022-12-08T11:25:04.784Z,7.53
2022-12-08T11:27:35.098Z,7.15
2022-12-08T11:30:05.950Z,6.20
2022-12-08T11:32:40.537Z,5.90
2022-12-08T11:35:11.820Z,5.78
2022-12-08T11:37:41.998Z,5.93
2022-12-08T11:40:18.951Z,5.93
2022-12-08T11:42:56.268Z,5.70
2022-12-08T11:45:30.522Z,5.25
2022-12-08T11:48:07.653Z,5.55
2022-12-08T11:50:44.659Z,5.50
2022-12-08T11:53:22.153Z,5.13
2022-12-08T11:55:56.816Z,5.47
2022-12-08T11:58:29.427Z,5.75
2022-12-08T12:00:58.148Z,5.60
2022-12-08T12:03:34.119Z,5.63
2022-12-08T12:09:18.717Z,5.00
2022-12-08T12:12:16.076Z,5.22
2022-12-08T12:15:03.544Z,5.72
2022-12-08T12:17:44.744Z,5.28
2022-12-08T12:20:17.824Z,5.25
2022-12-08T12:22:50.395Z,5.65
2022-12-08T12:25:20.648Z,4.70
2022-12-08T12:27:51.187Z,4.85
2022-12-08T12:30:25.143Z,6.25
2022-12-08T12:32:56.811Z,4.95
2022-12-08T12:35:33.908Z,4.88
2022-12-08T12:38:26.329Z,5.18
2022-12-08T12:41:02.337Z,4.78
2022-12-08T12:43:35.124Z,5.50
2022-12-08T12:46:41.190Z,5.18
2022-12-08T12:49:48.762Z,4.82
2022-12-08T12:52:38.303Z,4.90
2022-12-08T12:55:26.621Z,5.00
2022-12-08T12:57:56.418Z,4.70
2022-12-08T13:00:28.624Z,4.78
2022-12-08T13:02:59.284Z,4.03
2022-12-08T13:05:30.309Z,4.53
2022-12-08T13:08:01.378Z,4.75
2022-12-08T13:10:32.755Z,4.15
2022-12-08T13:13:19.886Z,4.05
2022-12-08T13:15:56.038Z,4.13
2022-12-08T13:18:28.418Z,4.35
2022-12-08T13:21:04.182Z,4.00
2022-12-08T13:23:47.397Z,3.70
2022-12-08T13:26:22.495Z,4.03
2022-12-08T13:29:22.234Z,4.65
2022-12-08T13:31:54.049Z,4.90
2022-12-08T13:34:29.807Z,4.88
2022-12-08T13:37:20.161Z,5.22
2022-12-08T13:39:53.256Z,5.18
2022-12-08T13:42:26.176Z,5.00
2022-12-08T13:48:21.580Z,5.57
2022-12-08T13:59:30.535Z,4.95
2022-12-08T14:02:02.213Z,4.57
2022-12-08T14:04:54.546Z,4.65
2022-12-08T14:07:21.713Z,5.35
2022-12-08T14:09:50.465Z,4.22
2022-12-08T14:12:21.943Z,5.20
2022-12-08T14:15:08.059Z,23.17
2022-12-08T14:17:36.245Z,6.30
2022-12-08T14:20:19.415Z,5.30
2022-12-08T14:22:47.746Z,5.07
2022-12-08T14:25:17.677Z,5.00
2022-12-08T14:27:47.217Z,5.47
2022-12-08T14:30:21.372Z,6.13
2022-12-08T14:32:50.886Z,6.28
2022-12-08T14:35:25.283Z,5.63
2022-12-08T14:37:58.725Z,6.68
2022-12-08T14:40:36.220Z,5.57
2022-12-08T14:43:15.979Z,5.80
2022-12-08T14:45:50.777Z,5.60
2022-12-08T14:48:25.512Z,6.03
2022-12-08T14:51:08.772Z,5.63
2022-12-08T14:53:42.565Z,12.10
2022-12-08T14:56:22.718Z,7.30
2022-12-08T14:59:03.015Z,6.43
2022-12-08T15:01:31.727Z,7.47
2022-12-08T15:04:03.672Z,6.57
2022-12-08T15:06:35.581Z,22.30
2022-12-08T15:09:16.865Z,18.97
2022-12-08T15:11:45.059Z,19.67
2022-12-08T15:14:30.170Z,10.30
2022-12-08T15:16:58.433Z,8.07
2022-12-08T15:19:29.968Z,8.97
2022-12-08T15:22:09.655Z,8.63
2022-12-08T15:24:37.675Z,8.10
2022-12-08T15:27:05.861Z,10.47
2022-12-08T15:29:34.163Z,12.83
2022-12-08T15:32:03.178Z,7.63
2022-12-08T15:34:31.705Z,10.13
2022-12-08T15:37:01.526Z,9.60
2022-12-08T15:39:33.586Z,9.37
2022-12-08T15:42:02.820Z,9.50
2022-12-08T15:44:33.124Z,8.97
2022-12-08T15:47:01.931Z,14.60
2022-12-08T15:49:30.120Z,13.00
2022-12-08T15:52:10.711Z,15.20
2022-12-08T15:54:40.879Z,14.27
2022-12-08T15:57:30.063Z,12.37
2022-12-08T16:00:24.434Z,8.90
2022-12-08T16:06:10.182Z,15.27
2022-12-08T16:08:51.807Z,25.90
2022-12-08T16:12:05.327Z,9.50
2022-12-08T16:17:19.332Z,9.27
2022-12-08T16:19:47.489Z,9.10
2022-12-08T16:25:23.404Z,15.90
2022-12-08T16:28:17.352Z,11.30
2022-12-08T16:30:43.514Z,10.73
2022-12-08T16:33:13.267Z,10.47
2022-12-08T16:35:42.964Z,9.90
2022-12-08T16:38:15.573Z,9.20
2022-12-08T16:41:00.047Z,9.73
2022-12-08T16:43:29.526Z,7.50
2022-12-08T16:45:57.567Z,8.13
2022-12-08T16:48:26.368Z,7.00
2022-12-08T16:50:54.972Z,7.33
2022-12-08T16:53:24.280Z,6.80
2022-12-08T16:55:52.455Z,8.17
2022-12-08T16:58:21.580Z,5.80
2022-12-08T17:00:51.245Z,6.07
2022-12-08T17:03:19.598Z,4.60
2022-12-08T17:05:47.711Z,5.67
2022-12-08T17:08:16.353Z,4.70
2022-12-08T17:11:05.822Z,5.37
2022-12-08T17:13:33.999Z,4.93
2022-12-08T17:16:04.214Z,5.20
2022-12-08T17:18:32.314Z,5.97
2022-12-08T17:21:00.347Z,7.80
2022-12-08T17:23:28.389Z,5.53
2022-12-08T17:26:00.585Z,7.10
2022-12-08T17:28:58.240Z,6.00
2022-12-08T17:31:21.383Z,6.77
2022-12-08T17:33:51.515Z,6.73
2022-12-08T17:36:19.591Z,7.50
2022-12-08T17:38:48.014Z,8.00
2022-12-08T17:41:17.267Z,7.27
2022-12-08T17:43:45.474Z,7.10
2022-12-08T17:46:20.236Z,6.93
2022-12-08T17:48:48.617Z,5.73
2022-12-08T17:51:19.937Z,6.23
2022-12-08T17:53:48.062Z,6.37
2022-12-08T17:56:19.977Z,6.37
2022-12-08T17:58:54.266Z,7.83
2022-12-08T18:01:25.174Z,6.87
2022-12-08T18:03:53.372Z,6.50
2022-12-08T18:06:24.661Z,5.70
2022-12-08T18:08:55.963Z,8.83
2022-12-08T18:11:24.279Z,6.37
2022-12-08T18:13:53.339Z,6.33
2022-12-08T18:16:23.297Z,6.23
2022-12-08T18:18:53.302Z,6.50
2022-12-08T18:21:23.613Z,6.27
2022-12-08T18:23:54.259Z,5.30
2022-12-08T18:26:23.309Z,5.50
2022-12-08T18:28:51.544Z,5.50
2022-12-08T18:31:21.833Z,6.93
2022-12-08T18:33:53.367Z,6.27
2022-12-08T18:36:24.193Z,5.83
2022-12-08T18:38:54.031Z,13.23
2022-12-08T18:41:24.648Z,6.20
2022-12-08T18:43:56.900Z,5.90
2022-12-08T18:46:26.223Z,5.00
2022-12-08T18:48:55.969Z,5.90
2022-12-08T18:51:26.062Z,5.80
2022-12-08T18:53:55.734Z,6.37
2022-12-08T18:56:26.888Z,5.50
2022-12-08T18:59:02.938Z,5.90
2022-12-08T19:01:31.972Z,5.30
2022-12-08T19:06:51.858Z,5.33
2022-12-08T19:09:20.099Z,5.93
2022-12-08T19:11:48.281Z,5.80
2022-12-08T19:14:16.738Z,12.40
2022-12-08T19:16:45.318Z,9.53
2022-12-08T19:19:15.291Z,11.80
2022-12-08T19:21:46.564Z,7.87
2022-12-08T19:24:15.486Z,6.43
2022-12-08T19:26:44.146Z,14.37
2022-12-08T19:29:12.796Z,13.20
2022-12-08T19:31:41.879Z,6.20
2022-12-08T19:34:11.715Z,5.33
2022-12-08T19:36:43.541Z,6.40
2022-12-08T19:39:33.849Z,4.57
2022-12-08T19:42:20.178Z,5.00
2022-12-08T19:44:54.681Z,6.50
2022-12-08T19:47:24.659Z,5.60
2022-12-08T19:49:54.106Z,4.70
2022-12-08T19:52:23.898Z,6.30
2022-12-08T19:54:52.882Z,10.00
2022-12-08T19:57:21.574Z,6.80
2022-12-08T19:59:55.990Z,6.27
2022-12-08T20:02:24.968Z,5.83
2022-12-08T20:04:53.803Z,5.33
2022-12-08T20:07:23.361Z,5.90
2022-12-08T20:09:51.551Z,6.20
2022-12-08T20:12:20.044Z,10.87
2022-12-08T20:14:48.079Z,7.03
2022-12-08T20:17:16.329Z,6.80
2022-12-08T20:19:44.397Z,6.87
2022-12-08T20:22:12.919Z,7.20
2022-12-08T20:24:42.702Z,6.20
2022-12-08T20:27:10.901Z,7.40
2022-12-08T20:29:38.982Z,4.60
2022-12-08T20:32:07.618Z,4.70
2022-12-08T20:34:36.393Z,4.53
2022-12-08T20:37:04.862Z,5.60
2022-12-08T20:39:32.996Z,5.47
2022-12-08T20:42:04.905Z,4.97
2022-12-08T20:44:33.025Z,4.33
2022-12-08T20:47:01.920Z,4.40
2022-12-08T20:49:34.533Z,5.33
2022-12-08T20:52:03.544Z,4.57
2022-12-08T20:54:32.130Z,4.83
2022-12-08T20:57:02.667Z,5.17
2022-12-08T20:59:30.748Z,5.30
2022-12-08T21:02:00.850Z,5.67
2022-12-08T21:04:29.393Z,5.33
2022-12-08T21:06:57.674Z,4.57
2022-12-08T21:09:26.005Z,4.73
2022-12-08T21:11:54.324Z,4.97
2022-12-08T21:14:24.384Z,4.40
2022-12-08T21:16:54.579Z,4.87
2022-12-08T21:19:24.104Z,7.43
2022-12-08T21:21:52.245Z,5.97
2022-12-08T21:24:20.798Z,4.67
2022-12-08T21:26:49.262Z,4.87
2022-12-08T21:29:17.380Z,4.90
2022-12-08T21:31:47.063Z,4.83
2022-12-08T21:34:15.299Z,5.00
2022-12-08T21:36:43.669Z,4.67
2022-12-08T21:39:13.378Z,4.63
2022-12-08T21:41:59.519Z,4.70
2022-12-08T21:44:27.770Z,7.03
2022-12-08T21:46:57.317Z,5.43
2022-12-08T21:49:25.660Z,5.83
2022-12-08T21:51:54.158Z,5.80
2022-12-08T21:54:22.706Z,5.97
2022-12-08T21:56:51.131Z,5.50
2022-12-08T21:59:20.898Z,5.10
2022-12-08T22:01:49.517Z,5.70
2022-12-08T22:04:21.833Z,5.37
2022-12-08T22:06:50.740Z,5.17
2022-12-08T22:09:19.659Z,5.30
2022-12-08T22:11:48.208Z,4.73
2022-12-08T22:14:16.484Z,5.40
2022-12-08T22:16:45.591Z,5.70
2022-12-08T22:19:14.055Z,5.40
2022-12-08T22:21:43.949Z,5.20
2022-12-08T22:24:11.934Z,5.20
2022-12-08T22:26:40.171Z,5.10
2022-12-08T22:29:08.444Z,5.50
2022-12-08T22:31:37.205Z,4.57
2022-12-08T22:34:05.298Z,5.03
2022-12-08T22:36:33.453Z,4.97
2022-12-08T22:39:03.658Z,4.90
2022-12-08T22:41:31.653Z,4.73
2022-12-08T22:43:59.603Z,4.43
2022-12-08T22:46:28.896Z,4.97
2022-12-08T22:48:57.413Z,4.53
2022-12-08T22:51:25.624Z,4.80
2022-12-08T22:53:53.799Z,5.10
2022-12-08T22:56:23.382Z,4.57
2022-12-08T22:58:51.668Z,4.97
2022-12-08T23:01:24.724Z,4.57
2022-12-08T23:03:53.047Z,4.90
2022-12-08T23:06:21.722Z,4.77
2022-12-08T23:08:49.811Z,4.87
2022-12-08T23:11:18.119Z,4.80
2022-12-08T23:13:48.217Z,5.00
2022-12-08T23:16:16.336Z,4.23
2022-12-08T23:18:46.522Z,4.70
2022-12-08T23:21:17.207Z,4.87
2022-12-08T23:23:45.738Z,4.70
2022-12-08T23:26:18.466Z,4.97
2022-12-08T23:28:47.778Z,5.03
2022-12-08T23:31:16.216Z,5.10
2022-12-08T23:33:44.349Z,4.53
2022-12-08T23:36:13.404Z,3.97
2022-12-08T23:38:41.562Z,5.03
2022-12-08T23:41:11.847Z,5.20
2022-12-08T23:43:43.884Z,5.00
2022-12-08T23:46:13.786Z,4.70
2022-12-08T23:48:42.296Z,5.00
2022-12-08T23:51:10.606Z,4.87
2022-12-08T23:53:39.041Z,5.00
2022-12-08T23:56:10.162Z,5.00
2022-12-08T23:58:38.472Z,5.37
